sensor_id;sensor_type;location;lat;lon;timestamp;temperature;humidity
26907;DHT22;14472;56.880;16.658;2023-08-08T00:01:05;16.90;99.90
26907;DHT22;14472;56.880;16.658;2023-08-08T00:03:31;16.90;99.90
26907;DHT22;14472;56.880;16.658;2023-08-08T00:05:57;17.00;99.90
26907;DHT22;14472;56.880;16.658;2023-08-08T00:08:22;17.00;99.90
26907;DHT22;14472;56.880;16.658;2023-08-08T00:10:48;16.90;99.90
26907;DHT22;14472;56.880;16.658;2023-08-08T00:13:14;16.90;99.90
26907;DHT22;14472;56.880;16.658;2023-08-08T00:15:39;16.90;99.90
26907;DHT22;14472;56.880;16.658;2023-08-08T00:18:05;16.90;99.90
26907;DHT22;14472;56.880;16.658;2023-08-08T00:20:31;16.90;99.90
26907;DHT22;14472;56.880;16.658;2023-08-08T00:22:57;16.90;99.90
26907;DHT22;14472;56.880;16.658;2023-08-08T00:25:22;16.90;99.90
26907;DHT22;14472;56.880;16.658;2023-08-08T00:27:50;16.80;99.90
26907;DHT22;14472;56.880;16.658;2023-08-08T00:30:15;16.80;99.90
26907;DHT22;14472;56.880;16.658;2023-08-08T00:32:41;16.80;99.90
26907;DHT22;14472;56.880;16.658;2023-08-08T00:35:08;16.80;99.90
26907;DHT22;14472;56.880;16.658;2023-08-08T00:37:33;16.90;99.90
26907;DHT22;14472;56.880;16.658;2023-08-08T00:39:59;16.90;99.90
26907;DHT22;14472;56.880;16.658;2023-08-08T00:42:25;16.90;99.90
26907;DHT22;14472;56.880;16.658;2023-08-08T00:44:51;16.90;99.90
26907;DHT22;14472;56.880;16.658;2023-08-08T00:47:16;16.90;99.90
26907;DHT22;14472;56.880;16.658;2023-08-08T00:49:42;16.90;99.90
26907;DHT22;14472;56.880;16.658;2023-08-08T00:52:09;16.90;99.90
26907;DHT22;14472;56.880;16.658;2023-08-08T00:54:35;16.90;99.90
26907;DHT22;14472;56.880;16.658;2023-08-08T00:57:01;16.90;99.90
26907;DHT22;14472;56.880;16.658;2023-08-08T00:59:27;16.90;99.90
26907;DHT22;14472;56.880;16.658;2023-08-08T01:01:53;16.90;99.90
26907;DHT22;14472;56.880;16.658;2023-08-08T01:04:19;17.00;99.90
26907;DHT22;14472;56.880;16.658;2023-08-08T01:09:40;16.90;99.90
26907;DHT22;14472;56.880;16.658;2023-08-08T01:12:08;16.90;99.90
26907;DHT22;14472;56.880;16.658;2023-08-08T01:14:36;16.90;99.90
26907;DHT22;14472;56.880;16.658;2023-08-08T01:17:03;16.90;99.90
26907;DHT22;14472;56.880;16.658;2023-08-08T01:19:31;16.90;99.90
26907;DHT22;14472;56.880;16.658;2023-08-08T01:22:02;16.90;99.90
26907;DHT22;14472;56.880;16.658;2023-08-08T01:24:32;16.90;99.90
26907;DHT22;14472;56.880;16.658;2023-08-08T01:27:00;16.90;99.90
26907;DHT22;14472;56.880;16.658;2023-08-08T01:29:27;16.80;99.90
26907;DHT22;14472;56.880;16.658;2023-08-08T01:31:53;16.90;99.90
26907;DHT22;14472;56.880;16.658;2023-08-08T01:34:19;16.80;99.90
26907;DHT22;14472;56.880;16.658;2023-08-08T01:37:02;16.80;99.90
26907;DHT22;14472;56.880;16.658;2023-08-08T01:39:32;16.80;99.90
26907;DHT22;14472;56.880;16.658;2023-08-08T01:41:59;16.70;99.90
26907;DHT22;14472;56.880;16.658;2023-08-08T01:44:26;16.70;99.90
26907;DHT22;14472;56.880;16.658;2023-08-08T01:46:54;16.70;99.90
26907;DHT22;14472;56.880;16.658;2023-08-08T01:49:20;16.80;99.90
26907;DHT22;14472;56.880;16.658;2023-08-08T01:51:46;16.80;99.90
26907;DHT22;14472;56.880;16.658;2023-08-08T01:54:12;16.70;99.90
26907;DHT22;14472;56.880;16.658;2023-08-08T01:56:37;16.80;99.90
26907;DHT22;14472;56.880;16.658;2023-08-08T01:59:03;16.70;99.90
26907;DHT22;14472;56.880;16.658;2023-08-08T02:01:29;16.70;99.90
26907;DHT22;14472;56.880;16.658;2023-08-08T02:03:54;16.70;99.90
26907;DHT22;14472;56.880;16.658;2023-08-08T02:06:20;16.70;99.90
26907;DHT22;14472;56.880;16.658;2023-08-08T02:08:46;16.70;99.90
26907;DHT22;14472;56.880;16.658;2023-08-08T02:11:12;16.70;99.90
26907;DHT22;14472;56.880;16.658;2023-08-08T02:13:37;16.60;99.90
26907;DHT22;14472;56.880;16.658;2023-08-08T02:16:03;16.60;99.90
26907;DHT22;14472;56.880;16.658;2023-08-08T02:18:29;16.60;99.90
26907;DHT22;14472;56.880;16.658;2023-08-08T02:20:55;16.70;99.90
26907;DHT22;14472;56.880;16.658;2023-08-08T02:23:20;16.60;99.90
26907;DHT22;14472;56.880;16.658;2023-08-08T02:25:46;16.70;99.90
26907;DHT22;14472;56.880;16.658;2023-08-08T02:28:12;16.60;99.90
26907;DHT22;14472;56.880;16.658;2023-08-08T02:30:38;16.60;99.90
26907;DHT22;14472;56.880;16.658;2023-08-08T02:33:04;16.60;99.90
26907;DHT22;14472;56.880;16.658;2023-08-08T02:35:29;16.60;99.90
26907;DHT22;14472;56.880;16.658;2023-08-08T02:37:55;16.60;99.90
26907;DHT22;14472;56.880;16.658;2023-08-08T02:40:21;16.60;99.90
26907;DHT22;14472;56.880;16.658;2023-08-08T02:42:49;16.60;99.90
26907;DHT22;14472;56.880;16.658;2023-08-08T02:45:15;16.60;99.90
26907;DHT22;14472;56.880;16.658;2023-08-08T02:47:41;16.60;99.90
26907;DHT22;14472;56.880;16.658;2023-08-08T02:50:07;16.50;99.90
26907;DHT22;14472;56.880;16.658;2023-08-08T02:52:33;16.50;99.90
26907;DHT22;14472;56.880;16.658;2023-08-08T02:54:59;16.50;99.90
26907;DHT22;14472;56.880;16.658;2023-08-08T02:57:25;16.50;99.90
26907;DHT22;14472;56.880;16.658;2023-08-08T02:59:51;16.50;99.90
26907;DHT22;14472;56.880;16.658;2023-08-08T03:02:16;16.50;99.90
26907;DHT22;14472;56.880;16.658;2023-08-08T03:04:42;16.40;99.90
26907;DHT22;14472;56.880;16.658;2023-08-08T03:07:08;16.50;99.90
26907;DHT22;14472;56.880;16.658;2023-08-08T03:09:33;16.50;99.90
26907;DHT22;14472;56.880;16.658;2023-08-08T03:11:59;16.50;99.90
26907;DHT22;14472;56.880;16.658;2023-08-08T03:14:25;16.50;99.90
26907;DHT22;14472;56.880;16.658;2023-08-08T03:16:50;16.50;99.90
26907;DHT22;14472;56.880;16.658;2023-08-08T03:19:16;16.50;99.90
26907;DHT22;14472;56.880;16.658;2023-08-08T03:21:42;16.50;99.90
26907;DHT22;14472;56.880;16.658;2023-08-08T03:24:08;16.50;99.90
26907;DHT22;14472;56.880;16.658;2023-08-08T03:26:33;16.50;99.90
26907;DHT22;14472;56.880;16.658;2023-08-08T03:28:59;16.50;99.90
26907;DHT22;14472;56.880;16.658;2023-08-08T03:31:25;16.40;99.90
26907;DHT22;14472;56.880;16.658;2023-08-08T03:33:51;16.50;99.90
26907;DHT22;14472;56.880;16.658;2023-08-08T03:36:17;16.40;99.90
26907;DHT22;14472;56.880;16.658;2023-08-08T03:38:43;16.40;98.30
26907;DHT22;14472;56.880;16.658;2023-08-08T03:41:12;16.40;97.00
26907;DHT22;14472;56.880;16.658;2023-08-08T03:43:39;16.40;95.20
26907;DHT22;14472;56.880;16.658;2023-08-08T03:46:05;16.40;94.10
26907;DHT22;14472;56.880;16.658;2023-08-08T03:48:31;16.40;91.60
26907;DHT22;14472;56.880;16.658;2023-08-08T03:50:57;16.40;91.30
26907;DHT22;14472;56.880;16.658;2023-08-08T03:53:22;16.40;90.20
26907;DHT22;14472;56.880;16.658;2023-08-08T03:55:48;16.30;83.90
26907;DHT22;14472;56.880;16.658;2023-08-08T03:58:14;16.40;82.30
26907;DHT22;14472;56.880;16.658;2023-08-08T04:00:40;16.40;79.80
26907;DHT22;14472;56.880;16.658;2023-08-08T04:03:14;16.40;75.40
26907;DHT22;14472;56.880;16.658;2023-08-08T04:05:41;16.30;75.10
26907;DHT22;14472;56.880;16.658;2023-08-08T04:08:07;16.40;73.70
26907;DHT22;14472;56.880;16.658;2023-08-08T04:10:33;16.40;71.30
26907;DHT22;14472;56.880;16.658;2023-08-08T04:12:59;16.30;69.70
26907;DHT22;14472;56.880;16.658;2023-08-08T04:15:24;16.40;65.80
26907;DHT22;14472;56.880;16.658;2023-08-08T04:17:50;16.40;66.60
26907;DHT22;14472;56.880;16.658;2023-08-08T04:20:16;16.40;64.90
26907;DHT22;14472;56.880;16.658;2023-08-08T04:22:41;16.40;70.10
26907;DHT22;14472;56.880;16.658;2023-08-08T04:25:07;16.40;66.60
26907;DHT22;14472;56.880;16.658;2023-08-08T04:27:33;16.40;63.10
26907;DHT22;14472;56.880;16.658;2023-08-08T04:29:59;16.40;64.10
26907;DHT22;14472;56.880;16.658;2023-08-08T04:32:25;16.40;64.80
26907;DHT22;14472;56.880;16.658;2023-08-08T04:34:50;16.40;63.50
26907;DHT22;14472;56.880;16.658;2023-08-08T04:37:16;16.40;64.30
26907;DHT22;14472;56.880;16.658;2023-08-08T04:39:42;16.30;58.90
26907;DHT22;14472;56.880;16.658;2023-08-08T04:42:07;16.40;58.90
26907;DHT22;14472;56.880;16.658;2023-08-08T04:44:33;16.30;54.20
26907;DHT22;14472;56.880;16.658;2023-08-08T04:46:59;16.40;50.30
26907;DHT22;14472;56.880;16.658;2023-08-08T04:49:24;16.30;50.90
26907;DHT22;14472;56.880;16.658;2023-08-08T04:51:50;16.40;52.60
26907;DHT22;14472;56.880;16.658;2023-08-08T04:54:16;16.40;49.10
26907;DHT22;14472;56.880;16.658;2023-08-08T04:56:41;16.40;51.50
26907;DHT22;14472;56.880;16.658;2023-08-08T04:59:07;16.40;50.30
26907;DHT22;14472;56.880;16.658;2023-08-08T05:01:33;16.40;50.40
26907;DHT22;14472;56.880;16.658;2023-08-08T05:03:59;16.40;50.30
26907;DHT22;14472;56.880;16.658;2023-08-08T05:06:24;16.30;47.10
26907;DHT22;14472;56.880;16.658;2023-08-08T05:08:51;16.40;44.40
26907;DHT22;14472;56.880;16.658;2023-08-08T05:11:17;16.30;47.80
26907;DHT22;14472;56.880;16.658;2023-08-08T05:13:43;16.40;47.30
26907;DHT22;14472;56.880;16.658;2023-08-08T05:16:09;16.40;48.00
26907;DHT22;14472;56.880;16.658;2023-08-08T05:18:34;16.40;47.70
26907;DHT22;14472;56.880;16.658;2023-08-08T05:21:00;16.40;51.20
26907;DHT22;14472;56.880;16.658;2023-08-08T05:23:26;16.40;53.10
26907;DHT22;14472;56.880;16.658;2023-08-08T05:25:51;16.40;53.60
26907;DHT22;14472;56.880;16.658;2023-08-08T05:28:17;16.40;54.60
26907;DHT22;14472;56.880;16.658;2023-08-08T05:30:43;16.40;50.90
26907;DHT22;14472;56.880;16.658;2023-08-08T05:33:09;16.40;52.80
26907;DHT22;14472;56.880;16.658;2023-08-08T05:35:34;16.30;47.30
26907;DHT22;14472;56.880;16.658;2023-08-08T05:38:00;16.40;50.30
26907;DHT22;14472;56.880;16.658;2023-08-08T05:40:26;16.30;48.30
26907;DHT22;14472;56.880;16.658;2023-08-08T05:42:51;16.30;49.80
26907;DHT22;14472;56.880;16.658;2023-08-08T05:45:17;16.30;47.30
26907;DHT22;14472;56.880;16.658;2023-08-08T05:47:43;16.30;52.80
26907;DHT22;14472;56.880;16.658;2023-08-08T05:50:09;16.40;55.30
26907;DHT22;14472;56.880;16.658;2023-08-08T05:52:35;16.40;62.70
26907;DHT22;14472;56.880;16.658;2023-08-08T05:55:00;16.40;64.50
26907;DHT22;14472;56.880;16.658;2023-08-08T05:57:26;16.40;63.10
26907;DHT22;14472;56.880;16.658;2023-08-08T05:59:52;16.30;64.90
26907;DHT22;14472;56.880;16.658;2023-08-08T06:02:18;16.30;70.00
26907;DHT22;14472;56.880;16.658;2023-08-08T06:04:43;16.30;68.90
26907;DHT22;14472;56.880;16.658;2023-08-08T06:07:09;16.30;69.00
26907;DHT22;14472;56.880;16.658;2023-08-08T06:09:36;16.30;67.40
26907;DHT22;14472;56.880;16.658;2023-08-08T06:12:03;16.30;59.90
26907;DHT22;14472;56.880;16.658;2023-08-08T06:14:29;16.30;59.30
26907;DHT22;14472;56.880;16.658;2023-08-08T06:16:55;16.30;59.20
26907;DHT22;14472;56.880;16.658;2023-08-08T06:19:21;16.30;56.60
26907;DHT22;14472;56.880;16.658;2023-08-08T06:21:47;16.30;54.10
26907;DHT22;14472;56.880;16.658;2023-08-08T06:24:12;16.30;57.20
26907;DHT22;14472;56.880;16.658;2023-08-08T06:26:38;16.30;61.80
26907;DHT22;14472;56.880;16.658;2023-08-08T06:29:04;16.30;68.50
26907;DHT22;14472;56.880;16.658;2023-08-08T06:31:30;16.30;69.20
26907;DHT22;14472;56.880;16.658;2023-08-08T06:33:56;16.30;67.70
26907;DHT22;14472;56.880;16.658;2023-08-08T06:36:21;16.30;63.00
26907;DHT22;14472;56.880;16.658;2023-08-08T06:38:47;16.30;65.80
26907;DHT22;14472;56.880;16.658;2023-08-08T06:41:13;16.30;63.00
26907;DHT22;14472;56.880;16.658;2023-08-08T06:43:39;16.30;59.40
26907;DHT22;14472;56.880;16.658;2023-08-08T06:46:05;16.30;55.10
26907;DHT22;14472;56.880;16.658;2023-08-08T06:48:30;16.30;52.10
26907;DHT22;14472;56.880;16.658;2023-08-08T06:50:56;16.30;45.40
26907;DHT22;14472;56.880;16.658;2023-08-08T06:53:22;16.30;45.70
26907;DHT22;14472;56.880;16.658;2023-08-08T06:55:48;16.30;43.80
26907;DHT22;14472;56.880;16.658;2023-08-08T06:58:14;16.30;41.10
26907;DHT22;14472;56.880;16.658;2023-08-08T07:00:40;16.30;37.60
26907;DHT22;14472;56.880;16.658;2023-08-08T07:03:06;16.20;37.50
26907;DHT22;14472;56.880;16.658;2023-08-08T07:05:32;16.30;37.60
26907;DHT22;14472;56.880;16.658;2023-08-08T07:07:57;16.30;36.10
26907;DHT22;14472;56.880;16.658;2023-08-08T07:10:23;16.30;37.60
26907;DHT22;14472;56.880;16.658;2023-08-08T07:12:49;16.20;45.30
26907;DHT22;14472;56.880;16.658;2023-08-08T07:15:15;16.20;52.60
26907;DHT22;14472;56.880;16.658;2023-08-08T07:17:41;16.20;62.30
26907;DHT22;14472;56.880;16.658;2023-08-08T07:20:07;16.20;65.30
26907;DHT22;14472;56.880;16.658;2023-08-08T07:22:33;16.20;66.00
26907;DHT22;14472;56.880;16.658;2023-08-08T07:24:59;16.20;57.60
26907;DHT22;14472;56.880;16.658;2023-08-08T07:27:26;16.10;51.40
26907;DHT22;14472;56.880;16.658;2023-08-08T07:29:52;16.20;50.40
26907;DHT22;14472;56.880;16.658;2023-08-08T07:32:18;16.10;51.20
26907;DHT22;14472;56.880;16.658;2023-08-08T07:34:43;16.10;51.00
26907;DHT22;14472;56.880;16.658;2023-08-08T07:37:09;16.10;49.50
26907;DHT22;14472;56.880;16.658;2023-08-08T07:39:35;16.10;52.10
26907;DHT22;14472;56.880;16.658;2023-08-08T07:42:01;16.00;51.90
26907;DHT22;14472;56.880;16.658;2023-08-08T07:44:26;16.00;60.00
26907;DHT22;14472;56.880;16.658;2023-08-08T07:46:52;16.00;59.60
26907;DHT22;14472;56.880;16.658;2023-08-08T07:49:18;16.00;56.00
26907;DHT22;14472;56.880;16.658;2023-08-08T07:51:43;16.10;50.20
26907;DHT22;14472;56.880;16.658;2023-08-08T07:54:09;16.10;46.60
26907;DHT22;14472;56.880;16.658;2023-08-08T07:56:36;16.10;43.80
26907;DHT22;14472;56.880;16.658;2023-08-08T07:59:02;16.00;43.70
26907;DHT22;14472;56.880;16.658;2023-08-08T08:01:29;16.00;43.70
26907;DHT22;14472;56.880;16.658;2023-08-08T08:03:55;16.00;42.50
26907;DHT22;14472;56.880;16.658;2023-08-08T08:06:20;16.00;39.30
26907;DHT22;14472;56.880;16.658;2023-08-08T08:08:46;16.00;35.70
26907;DHT22;14472;56.880;16.658;2023-08-08T08:11:12;16.10;34.20
26907;DHT22;14472;56.880;16.658;2023-08-08T08:13:39;16.10;37.90
26907;DHT22;14472;56.880;16.658;2023-08-08T08:16:05;16.10;37.20
26907;DHT22;14472;56.880;16.658;2023-08-08T08:18:31;16.10;40.70
26907;DHT22;14472;56.880;16.658;2023-08-08T08:20:58;16.00;42.90
26907;DHT22;14472;56.880;16.658;2023-08-08T08:23:24;16.10;46.60
26907;DHT22;14472;56.880;16.658;2023-08-08T08:25:50;16.10;39.10
26907;DHT22;14472;56.880;16.658;2023-08-08T08:28:16;16.10;33.70
26907;DHT22;14472;56.880;16.658;2023-08-08T08:30:42;16.10;30.80
26907;DHT22;14472;56.880;16.658;2023-08-08T08:33:08;16.10;39.80
26907;DHT22;14472;56.880;16.658;2023-08-08T08:35:35;16.10;60.20
26907;DHT22;14472;56.880;16.658;2023-08-08T08:38:01;16.00;74.10
26907;DHT22;14472;56.880;16.658;2023-08-08T08:40:28;16.10;81.50
26907;DHT22;14472;56.880;16.658;2023-08-08T08:42:55;16.00;83.50
26907;DHT22;14472;56.880;16.658;2023-08-08T08:45:22;16.10;90.10
26907;DHT22;14472;56.880;16.658;2023-08-08T08:47:49;16.10;77.50
26907;DHT22;14472;56.880;16.658;2023-08-08T08:50:18;16.10;76.80
26907;DHT22;14472;56.880;16.658;2023-08-08T08:52:44;16.10;67.50
26907;DHT22;14472;56.880;16.658;2023-08-08T08:55:10;16.10;62.70
26907;DHT22;14472;56.880;16.658;2023-08-08T08:57:36;16.20;57.40
26907;DHT22;14472;56.880;16.658;2023-08-08T09:00:03;16.20;43.90
26907;DHT22;14472;56.880;16.658;2023-08-08T09:02:31;16.20;39.90
26907;DHT22;14472;56.880;16.658;2023-08-08T09:04:57;16.20;28.30
26907;DHT22;14472;56.880;16.658;2023-08-08T09:07:24;16.30;25.40
26907;DHT22;14472;56.880;16.658;2023-08-08T09:09:52;16.30;20.50
26907;DHT22;14472;56.880;16.658;2023-08-08T09:12:18;16.40;9.80
26907;DHT22;14472;56.880;16.658;2023-08-08T09:14:44;16.40;5.20
26907;DHT22;14472;56.880;16.658;2023-08-08T09:17:13;16.50;2.60
26907;DHT22;14472;56.880;16.658;2023-08-08T09:19:43;16.50;1.00
26907;DHT22;14472;56.880;16.658;2023-08-08T09:22:09;16.50;1.00
26907;DHT22;14472;56.880;16.658;2023-08-08T09:24:41;16.50;1.00
26907;DHT22;14472;56.880;16.658;2023-08-08T09:27:08;16.50;1.00
26907;DHT22;14472;56.880;16.658;2023-08-08T09:29:33;16.50;1.00
26907;DHT22;14472;56.880;16.658;2023-08-08T09:32:03;16.50;1.00
26907;DHT22;14472;56.880;16.658;2023-08-08T09:34:29;16.50;1.00
26907;DHT22;14472;56.880;16.658;2023-08-08T09:36:55;16.50;1.00
26907;DHT22;14472;56.880;16.658;2023-08-08T09:39:21;16.60;1.00
26907;DHT22;14472;56.880;16.658;2023-08-08T09:41:47;16.70;1.00
26907;DHT22;14472;56.880;16.658;2023-08-08T09:44:13;16.70;1.00
26907;DHT22;14472;56.880;16.658;2023-08-08T09:46:39;16.80;1.00
26907;DHT22;14472;56.880;16.658;2023-08-08T09:49:06;16.80;1.00
26907;DHT22;14472;56.880;16.658;2023-08-08T09:51:32;16.90;1.00
26907;DHT22;14472;56.880;16.658;2023-08-08T09:54:00;16.90;1.00
26907;DHT22;14472;56.880;16.658;2023-08-08T09:56:26;17.00;1.00
26907;DHT22;14472;56.880;16.658;2023-08-08T09:58:52;17.00;1.00
26907;DHT22;14472;56.880;16.658;2023-08-08T10:01:20;17.00;1.00
26907;DHT22;14472;56.880;16.658;2023-08-08T10:03:45;17.00;1.00
26907;DHT22;14472;56.880;16.658;2023-08-08T10:06:12;17.10;1.00
26907;DHT22;14472;56.880;16.658;2023-08-08T10:08:38;17.10;1.00
26907;DHT22;14472;56.880;16.658;2023-08-08T10:11:05;17.20;1.00
26907;DHT22;14472;56.880;16.658;2023-08-08T10:13:35;17.10;1.00
26907;DHT22;14472;56.880;16.658;2023-08-08T10:16:07;17.10;1.00
26907;DHT22;14472;56.880;16.658;2023-08-08T10:18:33;17.00;1.00
26907;DHT22;14472;56.880;16.658;2023-08-08T10:20:59;16.90;1.00
26907;DHT22;14472;56.880;16.658;2023-08-08T10:23:25;16.90;1.00
26907;DHT22;14472;56.880;16.658;2023-08-08T10:25:52;16.90;1.00
26907;DHT22;14472;56.880;16.658;2023-08-08T10:28:21;16.90;1.00
26907;DHT22;14472;56.880;16.658;2023-08-08T10:30:58;16.90;1.00
26907;DHT22;14472;56.880;16.658;2023-08-08T10:33:26;16.80;1.00
26907;DHT22;14472;56.880;16.658;2023-08-08T10:38:24;16.70;1.00
26907;DHT22;14472;56.880;16.658;2023-08-08T10:41:02;16.70;1.00
26907;DHT22;14472;56.880;16.658;2023-08-08T10:43:29;16.70;1.00
26907;DHT22;14472;56.880;16.658;2023-08-08T10:46:00;16.70;1.00
26907;DHT22;14472;56.880;16.658;2023-08-08T10:48:27;16.70;1.00
26907;DHT22;14472;56.880;16.658;2023-08-08T10:50:58;16.80;1.00
26907;DHT22;14472;56.880;16.658;2023-08-08T10:53:28;16.80;1.00
26907;DHT22;14472;56.880;16.658;2023-08-08T10:56:03;16.80;1.00
26907;DHT22;14472;56.880;16.658;2023-08-08T10:58:39;16.90;1.00
26907;DHT22;14472;56.880;16.658;2023-08-08T11:01:06;16.90;1.00
26907;DHT22;14472;56.880;16.658;2023-08-08T11:03:37;16.90;1.00
26907;DHT22;14472;56.880;16.658;2023-08-08T11:06:03;16.90;1.00
26907;DHT22;14472;56.880;16.658;2023-08-08T11:08:32;16.90;1.00
26907;DHT22;14472;56.880;16.658;2023-08-08T11:10:59;17.00;1.00
26907;DHT22;14472;56.880;16.658;2023-08-08T11:13:25;17.00;1.00
26907;DHT22;14472;56.880;16.658;2023-08-08T11:15:52;17.10;1.00
26907;DHT22;14472;56.880;16.658;2023-08-08T11:18:17;17.10;1.00
26907;DHT22;14472;56.880;16.658;2023-08-08T11:20:44;17.20;1.00
26907;DHT22;14472;56.880;16.658;2023-08-08T11:23:10;17.30;1.00
26907;DHT22;14472;56.880;16.658;2023-08-08T11:25:43;17.30;1.00
26907;DHT22;14472;56.880;16.658;2023-08-08T11:28:09;17.30;1.00
26907;DHT22;14472;56.880;16.658;2023-08-08T11:30:39;17.40;1.00
26907;DHT22;14472;56.880;16.658;2023-08-08T11:33:05;17.50;1.00
26907;DHT22;14472;56.880;16.658;2023-08-08T11:35:32;17.50;1.00
26907;DHT22;14472;56.880;16.658;2023-08-08T11:38:00;17.50;1.00
26907;DHT22;14472;56.880;16.658;2023-08-08T11:40:28;17.60;1.00
26907;DHT22;14472;56.880;16.658;2023-08-08T11:42:55;17.60;1.00
26907;DHT22;14472;56.880;16.658;2023-08-08T11:45:23;17.60;1.00
26907;DHT22;14472;56.880;16.658;2023-08-08T11:47:53;17.60;1.00
26907;DHT22;14472;56.880;16.658;2023-08-08T11:50:21;17.60;1.00
26907;DHT22;14472;56.880;16.658;2023-08-08T11:52:49;17.70;1.00
26907;DHT22;14472;56.880;16.658;2023-08-08T11:55:16;17.60;1.00
26907;DHT22;14472;56.880;16.658;2023-08-08T11:57:42;17.60;1.00
26907;DHT22;14472;56.880;16.658;2023-08-08T12:00:09;17.60;1.00
26907;DHT22;14472;56.880;16.658;2023-08-08T12:02:39;17.50;1.00
26907;DHT22;14472;56.880;16.658;2023-08-08T12:05:06;17.50;1.00
26907;DHT22;14472;56.880;16.658;2023-08-08T12:07:35;17.40;1.00
26907;DHT22;14472;56.880;16.658;2023-08-08T12:10:03;17.30;1.00
26907;DHT22;14472;56.880;16.658;2023-08-08T12:12:32;17.30;1.00
26907;DHT22;14472;56.880;16.658;2023-08-08T12:15:06;17.30;1.00
26907;DHT22;14472;56.880;16.658;2023-08-08T12:17:31;17.30;1.00
26907;DHT22;14472;56.880;16.658;2023-08-08T12:20:00;17.30;1.00
26907;DHT22;14472;56.880;16.658;2023-08-08T12:22:28;17.40;1.00
26907;DHT22;14472;56.880;16.658;2023-08-08T12:24:54;17.40;1.00
26907;DHT22;14472;56.880;16.658;2023-08-08T12:27:20;17.30;1.00
26907;DHT22;14472;56.880;16.658;2023-08-08T12:29:45;17.30;1.00
26907;DHT22;14472;56.880;16.658;2023-08-08T12:32:11;17.30;1.00
26907;DHT22;14472;56.880;16.658;2023-08-08T12:34:37;17.30;1.00
26907;DHT22;14472;56.880;16.658;2023-08-08T12:37:02;17.30;1.00
26907;DHT22;14472;56.880;16.658;2023-08-08T12:39:29;17.30;1.00
26907;DHT22;14472;56.880;16.658;2023-08-08T12:41:55;17.30;1.00
26907;DHT22;14472;56.880;16.658;2023-08-08T12:44:20;17.30;1.00
26907;DHT22;14472;56.880;16.658;2023-08-08T12:46:46;17.30;1.00
26907;DHT22;14472;56.880;16.658;2023-08-08T12:49:12;17.30;1.00
26907;DHT22;14472;56.880;16.658;2023-08-08T12:51:38;17.30;1.00
26907;DHT22;14472;56.880;16.658;2023-08-08T12:54:03;17.40;1.00
26907;DHT22;14472;56.880;16.658;2023-08-08T12:56:29;17.30;1.00
26907;DHT22;14472;56.880;16.658;2023-08-08T12:58:55;17.40;1.00
26907;DHT22;14472;56.880;16.658;2023-08-08T13:01:21;17.30;1.00
26907;DHT22;14472;56.880;16.658;2023-08-08T13:03:46;17.40;1.00
26907;DHT22;14472;56.880;16.658;2023-08-08T13:06:12;17.40;1.00
26907;DHT22;14472;56.880;16.658;2023-08-08T13:08:39;17.40;1.00
26907;DHT22;14472;56.880;16.658;2023-08-08T13:11:05;17.50;1.00
26907;DHT22;14472;56.880;16.658;2023-08-08T13:13:31;17.50;1.00
26907;DHT22;14472;56.880;16.658;2023-08-08T13:15:56;17.50;1.00
26907;DHT22;14472;56.880;16.658;2023-08-08T13:18:23;17.60;1.00
26907;DHT22;14472;56.880;16.658;2023-08-08T13:20:48;17.60;1.00
26907;DHT22;14472;56.880;16.658;2023-08-08T13:23:14;17.70;1.00
26907;DHT22;14472;56.880;16.658;2023-08-08T13:25:40;17.70;1.00
26907;DHT22;14472;56.880;16.658;2023-08-08T13:28:06;17.70;1.00
26907;DHT22;14472;56.880;16.658;2023-08-08T13:30:32;17.70;1.00
26907;DHT22;14472;56.880;16.658;2023-08-08T13:32:59;17.70;1.00
26907;DHT22;14472;56.880;16.658;2023-08-08T13:35:25;17.70;1.00
26907;DHT22;14472;56.880;16.658;2023-08-08T13:37:51;17.70;1.00
26907;DHT22;14472;56.880;16.658;2023-08-08T13:40:18;17.80;1.00
26907;DHT22;14472;56.880;16.658;2023-08-08T13:42:44;17.80;1.00
26907;DHT22;14472;56.880;16.658;2023-08-08T13:45:14;17.90;1.00
26907;DHT22;14472;56.880;16.658;2023-08-08T13:47:40;17.90;1.00
26907;DHT22;14472;56.880;16.658;2023-08-08T13:50:06;17.90;1.00
26907;DHT22;14472;56.880;16.658;2023-08-08T13:52:33;18.00;1.00
26907;DHT22;14472;56.880;16.658;2023-08-08T13:54:59;18.00;1.00
26907;DHT22;14472;56.880;16.658;2023-08-08T13:57:25;18.00;1.00
26907;DHT22;14472;56.880;16.658;2023-08-08T13:59:51;18.00;1.00
26907;DHT22;14472;56.880;16.658;2023-08-08T14:02:17;18.00;1.00
26907;DHT22;14472;56.880;16.658;2023-08-08T14:04:44;18.00;1.00
26907;DHT22;14472;56.880;16.658;2023-08-08T14:07:10;17.90;1.00
26907;DHT22;14472;56.880;16.658;2023-08-08T14:09:36;18.00;1.00
26907;DHT22;14472;56.880;16.658;2023-08-08T14:12:02;18.10;1.00
26907;DHT22;14472;56.880;16.658;2023-08-08T14:14:28;18.10;1.00
26907;DHT22;14472;56.880;16.658;2023-08-08T14:16:54;18.10;1.00
26907;DHT22;14472;56.880;16.658;2023-08-08T14:19:20;18.10;1.00
26907;DHT22;14472;56.880;16.658;2023-08-08T14:21:46;18.10;1.00
26907;DHT22;14472;56.880;16.658;2023-08-08T14:24:11;18.20;1.00
26907;DHT22;14472;56.880;16.658;2023-08-08T14:26:37;18.20;1.00
26907;DHT22;14472;56.880;16.658;2023-08-08T14:29:03;18.20;1.00
26907;DHT22;14472;56.880;16.658;2023-08-08T14:31:30;18.30;1.00
26907;DHT22;14472;56.880;16.658;2023-08-08T14:33:56;18.30;1.00
26907;DHT22;14472;56.880;16.658;2023-08-08T14:36:22;18.20;1.00
26907;DHT22;14472;56.880;16.658;2023-08-08T14:38:47;18.20;1.00
26907;DHT22;14472;56.880;16.658;2023-08-08T14:41:13;18.30;1.00
26907;DHT22;14472;56.880;16.658;2023-08-08T14:43:39;18.30;1.00
26907;DHT22;14472;56.880;16.658;2023-08-08T14:46:05;18.30;1.00
26907;DHT22;14472;56.880;16.658;2023-08-08T14:48:31;18.30;1.00
26907;DHT22;14472;56.880;16.658;2023-08-08T14:50:57;18.30;1.00
26907;DHT22;14472;56.880;16.658;2023-08-08T14:53:23;18.30;1.00
26907;DHT22;14472;56.880;16.658;2023-08-08T14:55:48;18.30;1.00
26907;DHT22;14472;56.880;16.658;2023-08-08T14:58:15;18.20;1.00
26907;DHT22;14472;56.880;16.658;2023-08-08T15:00:41;18.20;1.00
26907;DHT22;14472;56.880;16.658;2023-08-08T15:03:07;18.30;1.00
26907;DHT22;14472;56.880;16.658;2023-08-08T15:05:32;18.30;1.00
26907;DHT22;14472;56.880;16.658;2023-08-08T15:07:58;18.20;1.00
26907;DHT22;14472;56.880;16.658;2023-08-08T15:10:24;18.20;1.00
26907;DHT22;14472;56.880;16.658;2023-08-08T15:12:50;18.20;1.00
26907;DHT22;14472;56.880;16.658;2023-08-08T15:15:16;18.20;1.00
26907;DHT22;14472;56.880;16.658;2023-08-08T15:17:42;18.20;1.00
26907;DHT22;14472;56.880;16.658;2023-08-08T15:20:09;18.20;1.00
26907;DHT22;14472;56.880;16.658;2023-08-08T15:22:36;18.20;1.00